sensor_id;sensor_type;location;lat;lon;timestamp;temperature;humidity
80743;SHT31;70142;50.894;6.052;2023-07-08T00:02:08;22.60;56.49
80743;SHT31;70142;50.894;6.052;2023-07-08T00:04:42;22.37;57.47
80743;SHT31;70142;50.894;6.052;2023-07-08T00:07:20;22.17;58.00
80743;SHT31;70142;50.894;6.052;2023-07-08T00:09:54;22.00;58.22
80743;SHT31;70142;50.894;6.052;2023-07-08T00:12:28;21.95;56.93
80743;SHT31;70142;50.894;6.052;2023-07-08T00:15:01;21.90;57.64
80743;SHT31;70142;50.894;6.052;2023-07-08T00:17:34;21.95;56.56
80743;SHT31;70142;50.894;6.052;2023-07-08T00:20:12;21.96;57.74
80743;SHT31;70142;50.894;6.052;2023-07-08T00:22:48;22.00;56.83
80743;SHT31;70142;50.894;6.052;2023-07-08T00:25:22;21.99;56.35
80743;SHT31;70142;50.894;6.052;2023-07-08T00:27:56;22.02;56.38
80743;SHT31;70142;50.894;6.052;2023-07-08T00:30:31;22.05;56.99
80743;SHT31;70142;50.894;6.052;2023-07-08T00:33:07;22.09;55.88
80743;SHT31;70142;50.894;6.052;2023-07-08T00:35:42;22.13;55.61
80743;SHT31;70142;50.894;6.052;2023-07-08T00:38:21;22.19;55.11
80743;SHT31;70142;50.894;6.052;2023-07-08T00:41:06;22.23;55.64
80743;SHT31;70142;50.894;6.052;2023-07-08T00:43:46;22.23;55.08
80743;SHT31;70142;50.894;6.052;2023-07-08T00:46:46;22.26;52.17
80743;SHT31;70142;50.894;6.052;2023-07-08T00:49:28;22.27;55.04
80743;SHT31;70142;50.894;6.052;2023-07-08T00:52:17;22.26;53.41
80743;SHT31;70142;50.894;6.052;2023-07-08T00:54:53;22.26;53.69
80743;SHT31;70142;50.894;6.052;2023-07-08T00:57:31;22.30;53.66
80743;SHT31;70142;50.894;6.052;2023-07-08T01:00:10;22.43;54.57
80743;SHT31;70142;50.894;6.052;2023-07-08T01:02:52;22.37;56.20
80743;SHT31;70142;50.894;6.052;2023-07-08T01:05:28;22.23;57.52
80743;SHT31;70142;50.894;6.052;2023-07-08T01:08:05;21.98;58.70
80743;SHT31;70142;50.894;6.052;2023-07-08T01:10:46;21.65;58.69
80743;SHT31;70142;50.894;6.052;2023-07-08T01:13:22;21.48;59.08
80743;SHT31;70142;50.894;6.052;2023-07-08T01:15:58;21.30;59.20
80743;SHT31;70142;50.894;6.052;2023-07-08T01:18:31;21.21;59.52
80743;SHT31;70142;50.894;6.052;2023-07-08T01:21:28;21.04;60.20
80743;SHT31;70142;50.894;6.052;2023-07-08T01:24:06;20.93;60.44
80743;SHT31;70142;50.894;6.052;2023-07-08T01:26:44;20.85;60.71
80743;SHT31;70142;50.894;6.052;2023-07-08T01:29:18;20.81;60.99
80743;SHT31;70142;50.894;6.052;2023-07-08T01:31:54;20.72;61.48
80743;SHT31;70142;50.894;6.052;2023-07-08T01:34:28;20.70;60.44
80743;SHT31;70142;50.894;6.052;2023-07-08T01:37:05;20.63;60.82
80743;SHT31;70142;50.894;6.052;2023-07-08T01:39:40;20.67;60.80
80743;SHT31;70142;50.894;6.052;2023-07-08T01:42:14;20.62;60.71
80743;SHT31;70142;50.894;6.052;2023-07-08T01:44:47;20.49;61.06
80743;SHT31;70142;50.894;6.052;2023-07-08T01:47:22;20.50;60.96
80743;SHT31;70142;50.894;6.052;2023-07-08T01:49:58;20.54;60.79
80743;SHT31;70142;50.894;6.052;2023-07-08T01:52:31;20.49;60.96
80743;SHT31;70142;50.894;6.052;2023-07-08T01:55:07;20.46;60.97
80743;SHT31;70142;50.894;6.052;2023-07-08T01:57:40;20.50;61.07
80743;SHT31;70142;50.894;6.052;2023-07-08T02:00:14;20.52;61.08
80743;SHT31;70142;50.894;6.052;2023-07-08T02:02:48;20.52;61.13
80743;SHT31;70142;50.894;6.052;2023-07-08T02:05:22;20.43;61.38
80743;SHT31;70142;50.894;6.052;2023-07-08T02:07:56;20.52;61.03
80743;SHT31;70142;50.894;6.052;2023-07-08T02:10:31;20.49;61.30
80743;SHT31;70142;50.894;6.052;2023-07-08T02:13:05;20.57;61.26
80743;SHT31;70142;50.894;6.052;2023-07-08T02:15:39;20.53;61.89
80743;SHT31;70142;50.894;6.052;2023-07-08T02:18:12;20.43;62.20
80743;SHT31;70142;50.894;6.052;2023-07-08T02:20:47;20.26;63.16
80743;SHT31;70142;50.894;6.052;2023-07-08T02:23:20;20.36;62.55
80743;SHT31;70142;50.894;6.052;2023-07-08T02:25:55;20.40;63.04
80743;SHT31;70142;50.894;6.052;2023-07-08T02:28:28;20.43;62.44
80743;SHT31;70142;50.894;6.052;2023-07-08T02:31:02;20.33;63.64
80743;SHT31;70142;50.894;6.052;2023-07-08T02:33:36;20.26;63.08
80743;SHT31;70142;50.894;6.052;2023-07-08T02:36:09;20.18;62.71
80743;SHT31;70142;50.894;6.052;2023-07-08T02:38:42;20.13;62.86
80743;SHT31;70142;50.894;6.052;2023-07-08T02:41:17;20.06;64.15
80743;SHT31;70142;50.894;6.052;2023-07-08T02:43:50;20.06;63.57
80743;SHT31;70142;50.894;6.052;2023-07-08T02:46:23;19.99;63.86
80743;SHT31;70142;50.894;6.052;2023-07-08T02:48:56;20.04;63.15
80743;SHT31;70142;50.894;6.052;2023-07-08T02:51:29;19.86;63.61
80743;SHT31;70142;50.894;6.052;2023-07-08T02:54:03;19.72;64.08
80743;SHT31;70142;50.894;6.052;2023-07-08T02:56:38;19.58;65.46
80743;SHT31;70142;50.894;6.052;2023-07-08T02:59:11;19.43;65.30
80743;SHT31;70142;50.894;6.052;2023-07-08T03:01:44;19.35;66.13
80743;SHT31;70142;50.894;6.052;2023-07-08T03:04:18;19.41;65.88
80743;SHT31;70142;50.894;6.052;2023-07-08T03:06:53;19.31;65.64
80743;SHT31;70142;50.894;6.052;2023-07-08T03:09:27;19.24;66.79
80743;SHT31;70142;50.894;6.052;2023-07-08T03:12:02;19.26;64.69
80743;SHT31;70142;50.894;6.052;2023-07-08T03:14:35;19.18;66.68
80743;SHT31;70142;50.894;6.052;2023-07-08T03:17:09;19.18;63.79
80743;SHT31;70142;50.894;6.052;2023-07-08T03:19:44;19.27;62.35
80743;SHT31;70142;50.894;6.052;2023-07-08T03:22:18;19.37;65.16
80743;SHT31;70142;50.894;6.052;2023-07-08T03:24:51;19.48;64.15
80743;SHT31;70142;50.894;6.052;2023-07-08T03:27:27;19.30;64.88
80743;SHT31;70142;50.894;6.052;2023-07-08T03:30:00;19.31;65.20
80743;SHT31;70142;50.894;6.052;2023-07-08T03:32:37;19.24;65.19
80743;SHT31;70142;50.894;6.052;2023-07-08T03:35:10;19.02;66.51
80743;SHT31;70142;50.894;6.052;2023-07-08T03:37:43;18.89;66.83
80743;SHT31;70142;50.894;6.052;2023-07-08T03:40:17;19.04;66.23
80743;SHT31;70142;50.894;6.052;2023-07-08T03:42:51;19.07;65.73
80743;SHT31;70142;50.894;6.052;2023-07-08T03:45:25;18.96;66.37
80743;SHT31;70142;50.894;6.052;2023-07-08T03:48:02;18.92;66.81
80743;SHT31;70142;50.894;6.052;2023-07-08T03:50:37;19.06;66.35
80743;SHT31;70142;50.894;6.052;2023-07-08T03:53:10;19.10;66.53
80743;SHT31;70142;50.894;6.052;2023-07-08T03:55:44;19.07;66.97
80743;SHT31;70142;50.894;6.052;2023-07-08T03:58:18;19.27;66.14
80743;SHT31;70142;50.894;6.052;2023-07-08T04:00:53;19.26;66.99
80743;SHT31;70142;50.894;6.052;2023-07-08T04:03:26;19.21;67.34
80743;SHT31;70142;50.894;6.052;2023-07-08T04:05:59;19.26;66.86
80743;SHT31;70142;50.894;6.052;2023-07-08T04:08:32;19.35;65.44
80743;SHT31;70142;50.894;6.052;2023-07-08T04:11:06;19.32;64.88
80743;SHT31;70142;50.894;6.052;2023-07-08T04:13:42;19.39;63.59
80743;SHT31;70142;50.894;6.052;2023-07-08T04:16:18;19.46;63.65
80743;SHT31;70142;50.894;6.052;2023-07-08T04:18:52;19.37;63.60
80743;SHT31;70142;50.894;6.052;2023-07-08T04:21:26;19.43;63.27
80743;SHT31;70142;50.894;6.052;2023-07-08T04:23:59;19.39;63.71
80743;SHT31;70142;50.894;6.052;2023-07-08T04:26:32;19.44;64.03
80743;SHT31;70142;50.894;6.052;2023-07-08T04:29:11;19.65;63.37
80743;SHT31;70142;50.894;6.052;2023-07-08T04:31:44;19.75;63.96
80743;SHT31;70142;50.894;6.052;2023-07-08T04:34:17;19.77;63.57
80743;SHT31;70142;50.894;6.052;2023-07-08T04:36:52;19.86;63.44
80743;SHT31;70142;50.894;6.052;2023-07-08T04:39:25;19.91;63.54
80743;SHT31;70142;50.894;6.052;2023-07-08T04:41:58;20.08;63.42
80743;SHT31;70142;50.894;6.052;2023-07-08T04:44:33;20.15;62.88
80743;SHT31;70142;50.894;6.052;2023-07-08T04:47:07;20.22;62.65
80743;SHT31;70142;50.894;6.052;2023-07-08T04:49:41;20.34;62.72
80743;SHT31;70142;50.894;6.052;2023-07-08T04:52:15;20.56;62.10
80743;SHT31;70142;50.894;6.052;2023-07-08T04:54:49;20.67;61.39
80743;SHT31;70142;50.894;6.052;2023-07-08T04:57:22;20.76;61.96
80743;SHT31;70142;50.894;6.052;2023-07-08T04:59:56;20.79;60.48
80743;SHT31;70142;50.894;6.052;2023-07-08T05:02:29;20.79;60.26
80743;SHT31;70142;50.894;6.052;2023-07-08T05:05:03;20.76;60.24
80743;SHT31;70142;50.894;6.052;2023-07-08T05:07:37;20.84;59.63
80743;SHT31;70142;50.894;6.052;2023-07-08T05:10:10;20.91;59.23
80743;SHT31;70142;50.894;6.052;2023-07-08T05:12:45;20.97;59.63
80743;SHT31;70142;50.894;6.052;2023-07-08T05:15:20;21.00;60.09
80743;SHT31;70142;50.894;6.052;2023-07-08T05:17:53;21.51;61.35
80743;SHT31;70142;50.894;6.052;2023-07-08T05:20:27;21.89;58.16
80743;SHT31;70142;50.894;6.052;2023-07-08T05:23:00;22.90;55.95
80743;SHT31;70142;50.894;6.052;2023-07-08T05:25:35;23.66;53.41
80743;SHT31;70142;50.894;6.052;2023-07-08T05:28:08;24.36;51.48
80743;SHT31;70142;50.894;6.052;2023-07-08T05:30:43;24.60;50.72
80743;SHT31;70142;50.894;6.052;2023-07-08T05:33:16;23.92;51.82
80743;SHT31;70142;50.894;6.052;2023-07-08T05:35:50;23.83;52.51
80743;SHT31;70142;50.894;6.052;2023-07-08T05:38:24;24.85;49.37
80743;SHT31;70142;50.894;6.052;2023-07-08T05:40:59;25.47;49.30
80743;SHT31;70142;50.894;6.052;2023-07-08T05:43:32;25.74;47.71
80743;SHT31;70142;50.894;6.052;2023-07-08T05:46:07;26.23;46.98
80743;SHT31;70142;50.894;6.052;2023-07-08T05:48:43;26.21;46.88
80743;SHT31;70142;50.894;6.052;2023-07-08T05:51:17;25.32;46.87
80743;SHT31;70142;50.894;6.052;2023-07-08T05:53:50;24.98;47.96
80743;SHT31;70142;50.894;6.052;2023-07-08T05:56:23;25.62;47.55
80743;SHT31;70142;50.894;6.052;2023-07-08T05:58:56;26.03;45.87
80743;SHT31;70142;50.894;6.052;2023-07-08T06:01:31;26.55;45.80
80743;SHT31;70142;50.894;6.052;2023-07-08T06:04:05;27.05;44.65
80743;SHT31;70142;50.894;6.052;2023-07-08T06:06:38;27.49;42.62
80743;SHT31;70142;50.894;6.052;2023-07-08T06:09:11;27.71;42.64
80743;SHT31;70142;50.894;6.052;2023-07-08T06:11:44;27.67;42.48
80743;SHT31;70142;50.894;6.052;2023-07-08T06:14:17;27.70;43.33
80743;SHT31;70142;50.894;6.052;2023-07-08T06:16:52;27.84;42.79
80743;SHT31;70142;50.894;6.052;2023-07-08T06:19:26;27.77;42.71
80743;SHT31;70142;50.894;6.052;2023-07-08T06:22:00;27.60;44.15
80743;SHT31;70142;50.894;6.052;2023-07-08T06:24:53;27.83;43.81
80743;SHT31;70142;50.894;6.052;2023-07-08T06:27:26;28.01;44.14
80743;SHT31;70142;50.894;6.052;2023-07-08T06:29:59;28.38;43.27
80743;SHT31;70142;50.894;6.052;2023-07-08T06:32:34;28.51;43.03
80743;SHT31;70142;50.894;6.052;2023-07-08T06:35:08;28.51;42.14
80743;SHT31;70142;50.894;6.052;2023-07-08T06:37:41;28.75;42.28
80743;SHT31;70142;50.894;6.052;2023-07-08T06:40:14;28.86;43.09
80743;SHT31;70142;50.894;6.052;2023-07-08T06:42:49;28.96;42.23
80743;SHT31;70142;50.894;6.052;2023-07-08T06:45:55;29.49;41.19
80743;SHT31;70142;50.894;6.052;2023-07-08T06:48:30;29.57;40.97
80743;SHT31;70142;50.894;6.052;2023-07-08T06:51:03;28.61;43.00
80743;SHT31;70142;50.894;6.052;2023-07-08T06:53:36;29.07;42.36
80743;SHT31;70142;50.894;6.052;2023-07-08T06:56:10;29.80;41.66
80743;SHT31;70142;50.894;6.052;2023-07-08T06:58:44;30.27;40.01
80743;SHT31;70142;50.894;6.052;2023-07-08T07:01:17;30.19;40.09
80743;SHT31;70142;50.894;6.052;2023-07-08T07:03:52;30.39;39.87
80743;SHT31;70142;50.894;6.052;2023-07-08T07:06:25;30.96;39.37
80743;SHT31;70142;50.894;6.052;2023-07-08T07:08:58;31.20;39.48
80743;SHT31;70142;50.894;6.052;2023-07-08T07:11:32;31.43;39.07
80743;SHT31;70142;50.894;6.052;2023-07-08T07:14:05;31.29;38.76
80743;SHT31;70142;50.894;6.052;2023-07-08T07:16:58;31.45;38.99
80743;SHT31;70142;50.894;6.052;2023-07-08T07:19:40;31.87;37.44
80743;SHT31;70142;50.894;6.052;2023-07-08T07:22:13;32.04;37.07
80743;SHT31;70142;50.894;6.052;2023-07-08T07:24:46;31.91;38.38
80743;SHT31;70142;50.894;6.052;2023-07-08T07:27:20;32.15;36.92
80743;SHT31;70142;50.894;6.052;2023-07-08T07:29:53;32.51;37.33
80743;SHT31;70142;50.894;6.052;2023-07-08T07:32:27;32.58;36.47
80743;SHT31;70142;50.894;6.052;2023-07-08T07:35:03;32.78;36.23
80743;SHT31;70142;50.894;6.052;2023-07-08T07:37:36;32.68;36.75
80743;SHT31;70142;50.894;6.052;2023-07-08T07:40:11;32.72;36.45
80743;SHT31;70142;50.894;6.052;2023-07-08T07:42:47;32.69;36.15
80743;SHT31;70142;50.894;6.052;2023-07-08T07:45:20;32.91;36.51
80743;SHT31;70142;50.894;6.052;2023-07-08T07:47:54;33.16;35.71
80743;SHT31;70142;50.894;6.052;2023-07-08T07:50:31;33.43;36.44
80743;SHT31;70142;50.894;6.052;2023-07-08T07:53:06;33.41;35.19
80743;SHT31;70142;50.894;6.052;2023-07-08T07:55:40;33.57;35.20
80743;SHT31;70142;50.894;6.052;2023-07-08T07:58:13;33.54;33.72
80743;SHT31;70142;50.894;6.052;2023-07-08T08:00:46;33.70;33.92
80743;SHT31;70142;50.894;6.052;2023-07-08T08:03:21;33.97;33.92
80743;SHT31;70142;50.894;6.052;2023-07-08T08:05:55;34.18;33.80
80743;SHT31;70142;50.894;6.052;2023-07-08T08:08:29;34.42;32.91
80743;SHT31;70142;50.894;6.052;2023-07-08T08:11:02;34.33;32.54
80743;SHT31;70142;50.894;6.052;2023-07-08T08:13:35;34.67;32.03
80743;SHT31;70142;50.894;6.052;2023-07-08T08:16:09;34.86;32.18
80743;SHT31;70142;50.894;6.052;2023-07-08T08:18:42;35.03;32.41
80743;SHT31;70142;50.894;6.052;2023-07-08T08:21:16;35.33;32.97
80743;SHT31;70142;50.894;6.052;2023-07-08T08:23:49;35.51;33.26
80743;SHT31;70142;50.894;6.052;2023-07-08T08:26:23;35.61;31.94
80743;SHT31;70142;50.894;6.052;2023-07-08T08:28:56;35.33;32.16
80743;SHT31;70142;50.894;6.052;2023-07-08T08:31:30;35.31;32.49
80743;SHT31;70142;50.894;6.052;2023-07-08T08:34:04;35.18;32.37
80743;SHT31;70142;50.894;6.052;2023-07-08T08:36:38;35.37;33.18
80743;SHT31;70142;50.894;6.052;2023-07-08T08:39:12;35.17;35.26
80743;SHT31;70142;50.894;6.052;2023-07-08T08:41:45;34.65;35.14
80743;SHT31;70142;50.894;6.052;2023-07-08T08:44:27;33.81;35.99
80743;SHT31;70142;50.894;6.052;2023-07-08T08:47:11;32.83;37.44
80743;SHT31;70142;50.894;6.052;2023-07-08T08:50:00;32.35;39.82
80743;SHT31;70142;50.894;6.052;2023-07-08T08:52:40;31.91;40.78
80743;SHT31;70142;50.894;6.052;2023-07-08T08:55:15;31.68;41.37
80743;SHT31;70142;50.894;6.052;2023-07-08T08:57:58;32.21;40.07
80743;SHT31;70142;50.894;6.052;2023-07-08T09:00:46;32.86;39.86
80743;SHT31;70142;50.894;6.052;2023-07-08T09:03:43;32.69;39.52
80743;SHT31;70142;50.894;6.052;2023-07-08T09:06:23;32.79;39.78
80743;SHT31;70142;50.894;6.052;2023-07-08T09:09:02;33.07;38.67
80743;SHT31;70142;50.894;6.052;2023-07-08T09:11:41;33.34;38.56
80743;SHT31;70142;50.894;6.052;2023-07-08T09:14:22;33.90;38.10
80743;SHT31;70142;50.894;6.052;2023-07-08T09:17:11;34.62;35.93
80743;SHT31;70142;50.894;6.052;2023-07-08T09:20:03;34.79;35.71
80743;SHT31;70142;50.894;6.052;2023-07-08T09:22:42;34.90;35.50
80743;SHT31;70142;50.894;6.052;2023-07-08T09:25:25;35.43;34.40
80743;SHT31;70142;50.894;6.052;2023-07-08T09:28:01;34.62;35.28
80743;SHT31;70142;50.894;6.052;2023-07-08T09:30:34;33.97;36.65
80743;SHT31;70142;50.894;6.052;2023-07-08T09:33:08;34.49;35.95
80743;SHT31;70142;50.894;6.052;2023-07-08T09:35:45;34.89;35.29
80743;SHT31;70142;50.894;6.052;2023-07-08T09:38:22;35.27;34.65
80743;SHT31;70142;50.894;6.052;2023-07-08T09:40:56;35.82;34.61
80743;SHT31;70142;50.894;6.052;2023-07-08T09:43:35;36.29;33.15
80743;SHT31;70142;50.894;6.052;2023-07-08T09:46:12;36.42;32.01
80743;SHT31;70142;50.894;6.052;2023-07-08T09:48:45;36.99;33.16
80743;SHT31;70142;50.894;6.052;2023-07-08T09:51:19;36.17;33.29
80743;SHT31;70142;50.894;6.052;2023-07-08T09:53:52;35.91;33.52
80743;SHT31;70142;50.894;6.052;2023-07-08T09:56:28;36.19;33.78
80743;SHT31;70142;50.894;6.052;2023-07-08T09:59:01;36.19;33.92
80743;SHT31;70142;50.894;6.052;2023-07-08T10:01:35;36.21;33.58
80743;SHT31;70142;50.894;6.052;2023-07-08T10:04:08;36.11;34.86
80743;SHT31;70142;50.894;6.052;2023-07-08T10:06:44;35.78;35.24
80743;SHT31;70142;50.894;6.052;2023-07-08T10:09:23;35.61;35.76
80743;SHT31;70142;50.894;6.052;2023-07-08T10:12:02;35.57;34.32
80743;SHT31;70142;50.894;6.052;2023-07-08T10:14:46;35.47;34.71
80743;SHT31;70142;50.894;6.052;2023-07-08T10:17:22;35.53;34.65
80743;SHT31;70142;50.894;6.052;2023-07-08T10:19:55;35.54;33.98
80743;SHT31;70142;50.894;6.052;2023-07-08T10:22:38;36.27;33.61
80743;SHT31;70142;50.894;6.052;2023-07-08T10:25:26;36.35;33.11
80743;SHT31;70142;50.894;6.052;2023-07-08T10:28:21;36.46;33.27
80743;SHT31;70142;50.894;6.052;2023-07-08T10:31:09;36.36;33.18
80743;SHT31;70142;50.894;6.052;2023-07-08T10:34:12;37.07;32.33
80743;SHT31;70142;50.894;6.052;2023-07-08T10:36:56;36.83;32.00
80743;SHT31;70142;50.894;6.052;2023-07-08T10:39:56;37.54;31.17
80743;SHT31;70142;50.894;6.052;2023-07-08T10:42:52;37.67;31.18
80743;SHT31;70142;50.894;6.052;2023-07-08T10:45:37;36.84;31.68
80743;SHT31;70142;50.894;6.052;2023-07-08T10:48:29;36.14;33.11
80743;SHT31;70142;50.894;6.052;2023-07-08T10:51:19;36.35;32.56
80743;SHT31;70142;50.894;6.052;2023-07-08T10:54:15;36.80;32.23
80743;SHT31;70142;50.894;6.052;2023-07-08T10:56:57;36.84;31.71
80743;SHT31;70142;50.894;6.052;2023-07-08T10:59:47;37.12;31.68
80743;SHT31;70142;50.894;6.052;2023-07-08T11:02:57;37.02;30.57
80743;SHT31;70142;50.894;6.052;2023-07-08T11:05:40;36.72;31.01
80743;SHT31;70142;50.894;6.052;2023-07-08T11:08:20;37.31;29.91
80743;SHT31;70142;50.894;6.052;2023-07-08T11:10:59;37.68;30.06
80743;SHT31;70142;50.894;6.052;2023-07-08T11:13:54;38.28;29.91
80743;SHT31;70142;50.894;6.052;2023-07-08T11:16:36;38.53;29.12
80743;SHT31;70142;50.894;6.052;2023-07-08T11:19:17;38.63;29.30
80743;SHT31;70142;50.894;6.052;2023-07-08T11:21:54;38.82;29.53
80743;SHT31;70142;50.894;6.052;2023-07-08T11:24:34;39.20;29.63
80743;SHT31;70142;50.894;6.052;2023-07-08T11:27:16;39.03;28.94
80743;SHT31;70142;50.894;6.052;2023-07-08T11:30:01;38.96;28.99
80743;SHT31;70142;50.894;6.052;2023-07-08T11:32:36;39.20;28.93
80743;SHT31;70142;50.894;6.052;2023-07-08T11:35:19;38.29;29.23
80743;SHT31;70142;50.894;6.052;2023-07-08T11:37:55;37.48;30.37
80743;SHT31;70142;50.894;6.052;2023-07-08T11:40:29;37.54;30.09
80743;SHT31;70142;50.894;6.052;2023-07-08T11:43:04;36.42;31.39
80743;SHT31;70142;50.894;6.052;2023-07-08T11:45:38;36.19;31.51
80743;SHT31;70142;50.894;6.052;2023-07-08T11:48:17;37.02;30.79
80743;SHT31;70142;50.894;6.052;2023-07-08T11:50:56;37.67;29.72
80743;SHT31;70142;50.894;6.052;2023-07-08T11:53:35;37.95;29.83
80743;SHT31;70142;50.894;6.052;2023-07-08T11:56:21;37.77;29.49
80743;SHT31;70142;50.894;6.052;2023-07-08T11:59:16;37.77;28.79
80743;SHT31;70142;50.894;6.052;2023-07-08T12:01:53;37.41;29.53
80743;SHT31;70142;50.894;6.052;2023-07-08T12:04:29;36.43;31.07
80743;SHT31;70142;50.894;6.052;2023-07-08T12:07:15;35.48;31.57
80743;SHT31;70142;50.894;6.052;2023-07-08T12:09:58;35.97;30.86
80743;SHT31;70142;50.894;6.052;2023-07-08T12:12:36;36.69;30.00
80743;SHT31;70142;50.894;6.052;2023-07-08T12:15:14;37.63;29.11
80743;SHT31;70142;50.894;6.052;2023-07-08T12:17:50;38.02;28.29
80743;SHT31;70142;50.894;6.052;2023-07-08T12:20:27;38.42;27.98
80743;SHT31;70142;50.894;6.052;2023-07-08T12:23:11;37.91;28.61
80743;SHT31;70142;50.894;6.052;2023-07-08T12:25:44;38.28;29.37
80743;SHT31;70142;50.894;6.052;2023-07-08T12:28:19;39.02;28.33
80743;SHT31;70142;50.894;6.052;2023-07-08T12:30:53;39.54;28.44
80743;SHT31;70142;50.894;6.052;2023-07-08T12:33:30;39.91;27.43
80743;SHT31;70142;50.894;6.052;2023-07-08T12:36:04;39.11;27.86
80743;SHT31;70142;50.894;6.052;2023-07-08T12:38:41;39.09;28.18
80743;SHT31;70142;50.894;6.052;2023-07-08T12:41:19;39.50;27.42
80743;SHT31;70142;50.894;6.052;2023-07-08T12:43:56;39.03;28.08
80743;SHT31;70142;50.894;6.052;2023-07-08T12:46:30;38.63;28.81
80743;SHT31;70142;50.894;6.052;2023-07-08T12:49:04;38.09;28.68
80743;SHT31;70142;50.894;6.052;2023-07-08T12:51:37;37.50;28.79
80743;SHT31;70142;50.894;6.052;2023-07-08T12:54:12;36.87;30.00
80743;SHT31;70142;50.894;6.052;2023-07-08T12:56:46;36.46;29.99
80743;SHT31;70142;50.894;6.052;2023-07-08T12:59:23;36.04;30.68
80743;SHT31;70142;50.894;6.052;2023-07-08T13:01:57;35.73;30.82
80743;SHT31;70142;50.894;6.052;2023-07-08T13:04:31;35.73;31.48
80743;SHT31;70142;50.894;6.052;2023-07-08T13:07:05;35.77;32.21
80743;SHT31;70142;50.894;6.052;2023-07-08T13:09:43;35.81;30.68
80743;SHT31;70142;50.894;6.052;2023-07-08T13:12:21;35.85;31.23
80743;SHT31;70142;50.894;6.052;2023-07-08T13:14:59;36.32;30.19
80743;SHT31;70142;50.894;6.052;2023-07-08T13:17:33;36.84;29.58
80743;SHT31;70142;50.894;6.052;2023-07-08T13:20:14;37.45;28.59
80743;SHT31;70142;50.894;6.052;2023-07-08T13:22:53;37.81;28.57
80743;SHT31;70142;50.894;6.052;2023-07-08T13:25:30;37.24;29.13
80743;SHT31;70142;50.894;6.052;2023-07-08T13:28:16;36.36;29.69
80743;SHT31;70142;50.894;6.052;2023-07-08T13:30:51;35.67;30.56
80743;SHT31;70142;50.894;6.052;2023-07-08T13:33:29;35.00;30.78
80743;SHT31;70142;50.894;6.052;2023-07-08T13:36:05;34.53;31.80
80743;SHT31;70142;50.894;6.052;2023-07-08T13:38:39;34.67;32.47
80743;SHT31;70142;50.894;6.052;2023-07-08T13:41:20;34.87;31.84
80743;SHT31;70142;50.894;6.052;2023-07-08T13:43:53;35.17;30.62
80743;SHT31;70142;50.894;6.052;2023-07-08T13:46:34;35.04;30.62
80743;SHT31;70142;50.894;6.052;2023-07-08T13:49:12;35.29;32.36
80743;SHT31;70142;50.894;6.052;2023-07-08T13:51:45;35.40;31.45
80743;SHT31;70142;50.894;6.052;2023-07-08T13:54:22;35.48;31.32
80743;SHT31;70142;50.894;6.052;2023-07-08T13:56:59;35.68;31.87
80743;SHT31;70142;50.894;6.052;2023-07-08T13:59:33;35.99;31.70
80743;SHT31;70142;50.894;6.052;2023-07-08T14:02:15;36.09;31.32
80743;SHT31;70142;50.894;6.052;2023-07-08T14:04:50;36.18;30.86
80743;SHT31;70142;50.894;6.052;2023-07-08T14:07:27;35.98;31.46
80743;SHT31;70142;50.894;6.052;2023-07-08T14:10:00;35.98;33.19
80743;SHT31;70142;50.894;6.052;2023-07-08T14:12:35;36.08;32.89
80743;SHT31;70142;50.894;6.052;2023-07-08T14:15:09;35.61;34.57
80743;SHT31;70142;50.894;6.052;2023-07-08T14:17:42;35.55;34.82
80743;SHT31;70142;50.894;6.052;2023-07-08T14:20:17;35.41;33.39
80743;SHT31;70142;50.894;6.052;2023-07-08T14:22:50;35.24;33.84
80743;SHT31;70142;50.894;6.052;2023-07-08T14:25:27;35.18;32.86
80743;SHT31;70142;50.894;6.052;2023-07-08T14:28:01;35.24;32.46
80743;SHT31;70142;50.894;6.052;2023-07-08T14:30:42;35.38;32.02
80743;SHT31;70142;50.894;6.052;2023-07-08T14:33:16;35.29;32.75
80743;SHT31;70142;50.894;6.052;2023-07-08T14:35:49;35.27;34.16
80743;SHT31;70142;50.894;6.052;2023-07-08T14:38:22;35.08;33.56
80743;SHT31;70142;50.894;6.052;2023-07-08T14:40:56;35.16;35.80
80743;SHT31;70142;50.894;6.052;2023-07-08T14:43:32;35.04;34.43
80743;SHT31;70142;50.894;6.052;2023-07-08T14:46:09;35.07;33.28
80743;SHT31;70142;50.894;6.052;2023-07-08T14:48:43;34.90;34.93
80743;SHT31;70142;50.894;6.052;2023-07-08T14:51:16;34.89;34.10
80743;SHT31;70142;50.894;6.052;2023-07-08T14:53:49;34.96;33.94
80743;SHT31;70142;50.894;6.052;2023-07-08T14:56:26;34.89;34.79
80743;SHT31;70142;50.894;6.052;2023-07-08T14:59:01;34.90;34.24
80743;SHT31;70142;50.894;6.052;2023-07-08T15:01:36;34.75;33.81
80743;SHT31;70142;50.894;6.052;2023-07-08T15:04:11;34.60;35.50
80743;SHT31;70142;50.894;6.052;2023-07-08T15:06:46;34.39;35.97
80743;SHT31;70142;50.894;6.052;2023-07-08T15:09:19;34.35;36.32
80743;SHT31;70142;50.894;6.052;2023-07-08T15:11:52;34.36;37.35
80743;SHT31;70142;50.894;6.052;2023-07-08T15:14:28;34.51;36.65
80743;SHT31;70142;50.894;6.052;2023-07-08T15:17:01;34.52;36.72
80743;SHT31;70142;50.894;6.052;2023-07-08T15:19:34;34.43;36.25
80743;SHT31;70142;50.894;6.052;2023-07-08T15:22:11;34.46;34.58
80743;SHT31;70142;50.894;6.052;2023-07-08T15:24:44;34.43;37.09
80743;SHT31;70142;50.894;6.052;2023-07-08T15:27:22;34.31;38.23
80743;SHT31;70142;50.894;6.052;2023-07-08T15:29:57;34.21;38.64
80743;SHT31;70142;50.894;6.052;2023-07-08T15:32:30;34.09;40.46
80743;SHT31;70142;50.894;6.052;2023-07-08T15:35:11;34.21;37.63
80743;SHT31;70142;50.894;6.052;2023-07-08T15:37:46;34.39;39.46
80743;SHT31;70142;50.894;6.052;2023-07-08T15:40:21;33.85;41.19
80743;SHT31;70142;50.894;6.052;2023-07-08T15:42:57;33.04;39.56
80743;SHT31;70142;50.894;6.052;2023-07-08T15:45:34;32.78;40.45
80743;SHT31;70142;50.894;6.052;2023-07-08T15:48:12;32.80;40.90
80743;SHT31;70142;50.894;6.052;2023-07-08T15:50:46;32.39;41.38
80743;SHT31;70142;50.894;6.052;2023-07-08T15:53:19;32.32;41.66
80743;SHT31;70142;50.894;6.052;2023-07-08T15:55:53;32.68;41.81
80743;SHT31;70142;50.894;6.052;2023-07-08T15:58:29;32.96;41.88
80743;SHT31;70142;50.894;6.052;2023-07-08T16:01:05;32.95;41.44
80743;SHT31;70142;50.894;6.052;2023-07-08T16:03:38;33.02;41.78
80743;SHT31;70142;50.894;6.052;2023-07-08T16:06:11;32.89;41.33
80743;SHT31;70142;50.894;6.052;2023-07-08T16:08:45;33.04;41.53
80743;SHT31;70142;50.894;6.052;2023-07-08T16:11:28;33.27;41.28
80743;SHT31;70142;50.894;6.052;2023-07-08T16:14:03;32.84;41.93
80743;SHT31;70142;50.894;6.052;2023-07-08T16:16:38;32.63;42.67
80743;SHT31;70142;50.894;6.052;2023-07-08T16:19:13;32.38;43.06
80743;SHT31;70142;50.894;6.052;2023-07-08T16:21:47;32.18;43.30
80743;SHT31;70142;50.894;6.052;2023-07-08T16:24:20;32.35;42.93
80743;SHT31;70142;50.894;6.052;2023-07-08T16:26:54;32.63;42.28
80743;SHT31;70142;50.894;6.052;2023-07-08T16:29:28;33.43;40.76